Terminal Aerodrome Forecast
Issued by NWS Northern Indiana

Home | Current Version | Previous Version | Text Only | Print | Product List | Glossary Off
Versions: 1 2 3 4 5 6 7 8 9 10 11 12

000
FTUS43 KIWX 260500
TAFFWA
TAF
KFWA 260535Z 2606/2706 03012KT P6SM OVC035
      TEMPO 2606/2608 OVC025
     FM260900 02009KT P6SM SCT040
     FM261400 36006KT P6SM SCT250
     FM270200 04004KT P6SM OVC060=

USA.gov is the U.S. government's official web portal to all federal, state and local government web resources and services.